This is the latest recevied weather packets stored in our database for station/object EA1GLE. If no packets are shown the sender has not sent any weather packets the latest 10 day(s).
| Time | Temp. | Humidity | Pressure | Rain* | Wind** | Luminosity | Snow |
|---|---|---|---|---|---|---|---|
| 1777738684 | 12.78° C | 86% | 1016.6 hPa | 0.51 mm | - | 31 W/m² | - |
| 1777737738 | 13.89° C | 77% | 1016.8 hPa | 0 mm | - | 47 W/m² | - |
| 1777730043 | 12.22° C | 98% | 1018.1 hPa | 2.29 mm | - | 399 W/m² | - |
| 1777729503 | 12.22° C | 98% | 1017.7 hPa | 5.33 mm | - | 445 W/m² | - |
| 1777726803 | 10° C | 96% | 1019.2 hPa | 5.33 mm | - | 23 W/m² | - |
| 1777726443 | 10° C | 95% | 1019.1 hPa | 5.84 mm | - | 25 W/m² | - |
| 1777715644 | 16.11° C | 78% | 1019.2 hPa | 0 mm | - | 361 W/m² | - |
| 1777709883 | 15.56° C | 83% | 1019.3 hPa | 0 mm | - | 78 W/m² | - |
| 1777708803 | 15.56° C | 82% | 1019.2 hPa | 0 mm | - | 139 W/m² | - |
| 1777705743 | 14.44° C | 84% | 1019.2 hPa | 0 mm | - | 102 W/m² | - |
| 1777703224 | 13.89° C | 84% | 1019.2 hPa | 0 mm | - | 43 W/m² | - |
| 1777697643 | 13.89° C | 83% | 1019.1 hPa | 0 mm | - | 0 W/m² | - |
| 1777693503 | 13.33° C | 86% | 1019.5 hPa | 0 mm | - | 0 W/m² | - |
| 1777691883 | 13.33° C | 86% | 1019.7 hPa | 0 mm | - | 0 W/m² | - |
| 1777686843 | 13.33° C | 86% | 1019.9 hPa | 0 mm | - | 0 W/m² | - |
| 1777685226 | 13.33° C | 87% | 1020 hPa | 0 mm | - | 0 W/m² | - |
| 1777680003 | 14.44° C | 79% | 1020.2 hPa | 0 mm | - | 0 W/m² | - |
| 1777679103 | 14.44° C | 79% | 1020.5 hPa | 0 mm | - | 0 W/m² | - |
| 1777674964 | 15° C | 79% | 1020.6 hPa | 0 mm | - | 0 W/m² | - |
| 1777668844 | 16.11° C | 77% | 1020.9 hPa | 0 mm | - | 0 W/m² | - |
| 1777665603 | 16.67° C | 83% | 1020.5 hPa | 0 mm | - | 0 W/m² | - |
| 1777665243 | 16.67° C | 87% | 1020.5 hPa | 0 mm | - | 0 W/m² | - |
| 1777661778 | 18.89° C | 73% | 1019.9 hPa | 0 mm | - | 10 W/m² | - |
| 1777653904 | 21.67° C | 44% | 1019.4 hPa | 0 mm | - | 283 W/m² | - |
| 1777649763 | 21.11° C | 44% | 1019.5 hPa | 0 mm | - | 121 W/m² | - |
* Rain latest hour (hover to see other rain measurements)
** Current wind speed in m/s (hover to see current wind gust speed)